sensor_id;sensor_type;location;lat;lon;timestamp;P1;durP1;ratioP1;P2;durP2;ratioP2
32788;SDS011;19141;48.980;8.410;2023-09-19T04:22:32;3.72;;;1.73;;
32788;SDS011;19141;48.980;8.410;2023-09-19T04:24:58;2.58;;;1.50;;
32788;SDS011;19141;48.980;8.410;2023-09-19T04:27:23;2.63;;;1.52;;
32788;SDS011;19141;48.980;8.410;2023-09-19T04:29:49;4.15;;;1.90;;
32788;SDS011;19141;48.980;8.410;2023-09-19T04:32:15;5.32;;;1.85;;
32788;SDS011;19141;48.980;8.410;2023-09-19T04:34:42;8.73;;;2.00;;
32788;SDS011;19141;48.980;8.410;2023-09-19T04:37:08;4.80;;;1.60;;
32788;SDS011;19141;48.980;8.410;2023-09-19T04:39:33;4.10;;;1.88;;
32788;SDS011;19141;48.980;8.410;2023-09-19T04:41:59;4.85;;;1.80;;
32788;SDS011;19141;48.980;8.410;2023-09-19T04:44:24;8.75;;;1.70;;
32788;SDS011;19141;48.980;8.410;2023-09-19T04:46:50;2.85;;;1.70;;
32788;SDS011;19141;48.980;8.410;2023-09-19T04:49:15;4.43;;;1.70;;
32788;SDS011;19141;48.980;8.410;2023-09-19T04:51:41;4.25;;;2.00;;
32788;SDS011;19141;48.980;8.410;2023-09-19T04:54:07;5.50;;;1.88;;
32788;SDS011;19141;48.980;8.410;2023-09-19T04:56:33;3.63;;;1.88;;
32788;SDS011;19141;48.980;8.410;2023-09-19T04:58:59;5.57;;;2.30;;
32788;SDS011;19141;48.980;8.410;2023-09-19T05:01:25;3.47;;;2.25;;
32788;SDS011;19141;48.980;8.410;2023-09-19T05:03:50;4.50;;;1.88;;
32788;SDS011;19141;48.980;8.410;2023-09-19T05:06:19;3.70;;;2.03;;
32788;SDS011;19141;48.980;8.410;2023-09-19T05:08:48;2.78;;;2.13;;
32788;SDS011;19141;48.980;8.410;2023-09-19T05:11:20;1.60;;;1.17;;
32788;SDS011;19141;48.980;8.410;2023-09-19T05:13:49;4.53;;;1.70;;
32788;SDS011;19141;48.980;8.410;2023-09-19T05:16:18;3.88;;;2.05;;
32788;SDS011;19141;48.980;8.410;2023-09-19T05:18:44;3.40;;;1.75;;
32788;SDS011;19141;48.980;8.410;2023-09-19T05:21:09;3.10;;;1.85;;
32788;SDS011;19141;48.980;8.410;2023-09-19T05:23:35;2.40;;;1.63;;
32788;SDS011;19141;48.980;8.410;2023-09-19T05:26:01;4.03;;;2.00;;
32788;SDS011;19141;48.980;8.410;2023-09-19T05:28:29;5.63;;;2.70;;
32788;SDS011;19141;48.980;8.410;2023-09-19T05:30:54;4.05;;;2.08;;
32788;SDS011;19141;48.980;8.410;2023-09-19T05:33:20;4.43;;;2.05;;
32788;SDS011;19141;48.980;8.410;2023-09-19T05:35:45;6.65;;;2.65;;
32788;SDS011;19141;48.980;8.410;2023-09-19T05:40:39;3.47;;;1.98;;
32788;SDS011;19141;48.980;8.410;2023-09-19T05:43:08;2.90;;;2.00;;
32788;SDS011;19141;48.980;8.410;2023-09-19T05:45:34;3.22;;;2.08;;
32788;SDS011;19141;48.980;8.410;2023-09-19T05:48:09;4.80;;;1.80;;
32788;SDS011;19141;48.980;8.410;2023-09-19T05:50:40;3.67;;;1.80;;
32788;SDS011;19141;48.980;8.410;2023-09-19T05:53:06;3.92;;;2.10;;
32788;SDS011;19141;48.980;8.410;2023-09-19T05:55:32;6.45;;;2.63;;
32788;SDS011;19141;48.980;8.410;2023-09-19T05:57:58;5.32;;;2.00;;
32788;SDS011;19141;48.980;8.410;2023-09-19T06:00:24;5.82;;;2.20;;
32788;SDS011;19141;48.980;8.410;2023-09-19T06:02:56;4.75;;;2.42;;
32788;SDS011;19141;48.980;8.410;2023-09-19T06:05:22;4.00;;;2.38;;
32788;SDS011;19141;48.980;8.410;2023-09-19T06:07:49;5.55;;;2.15;;
32788;SDS011;19141;48.980;8.410;2023-09-19T06:10:16;3.97;;;1.95;;
32788;SDS011;19141;48.980;8.410;2023-09-19T06:12:42;2.97;;;2.00;;
32788;SDS011;19141;48.980;8.410;2023-09-19T06:15:14;5.30;;;2.00;;
32788;SDS011;19141;48.980;8.410;2023-09-19T06:17:42;3.75;;;1.95;;
32788;SDS011;19141;48.980;8.410;2023-09-19T06:20:11;5.15;;;2.17;;
32788;SDS011;19141;48.980;8.410;2023-09-19T06:22:42;3.47;;;2.05;;
32788;SDS011;19141;48.980;8.410;2023-09-19T06:25:09;4.72;;;2.42;;
32788;SDS011;19141;48.980;8.410;2023-09-19T06:27:40;3.65;;;2.10;;
32788;SDS011;19141;48.980;8.410;2023-09-19T06:30:09;4.07;;;2.03;;
32788;SDS011;19141;48.980;8.410;2023-09-19T06:32:39;4.30;;;1.85;;
32788;SDS011;19141;48.980;8.410;2023-09-19T06:35:05;5.78;;;1.83;;
32788;SDS011;19141;48.980;8.410;2023-09-19T06:37:35;5.38;;;1.77;;
32788;SDS011;19141;48.980;8.410;2023-09-19T06:40:00;5.82;;;2.33;;
32788;SDS011;19141;48.980;8.410;2023-09-19T06:42:26;4.15;;;1.80;;
32788;SDS011;19141;48.980;8.410;2023-09-19T06:44:53;4.03;;;1.60;;
32788;SDS011;19141;48.980;8.410;2023-09-19T06:47:18;4.63;;;1.90;;
32788;SDS011;19141;48.980;8.410;2023-09-19T06:49:44;6.05;;;1.90;;
32788;SDS011;19141;48.980;8.410;2023-09-19T06:52:09;4.00;;;2.05;;
32788;SDS011;19141;48.980;8.410;2023-09-19T06:54:35;4.57;;;2.00;;
32788;SDS011;19141;48.980;8.410;2023-09-19T06:57:01;4.35;;;1.73;;
32788;SDS011;19141;48.980;8.410;2023-09-19T06:59:26;3.20;;;1.63;;
32788;SDS011;19141;48.980;8.410;2023-09-19T07:01:52;5.13;;;1.85;;
32788;SDS011;19141;48.980;8.410;2023-09-19T07:04:17;6.80;;;1.95;;
32788;SDS011;19141;48.980;8.410;2023-09-19T07:06:44;4.27;;;1.90;;
32788;SDS011;19141;48.980;8.410;2023-09-19T07:09:15;4.13;;;1.88;;
32788;SDS011;19141;48.980;8.410;2023-09-19T07:11:40;5.45;;;2.25;;
32788;SDS011;19141;48.980;8.410;2023-09-19T07:14:06;6.78;;;2.10;;
32788;SDS011;19141;48.980;8.410;2023-09-19T07:16:31;6.22;;;1.92;;
32788;SDS011;19141;48.980;8.410;2023-09-19T07:18:56;4.35;;;1.85;;
32788;SDS011;19141;48.980;8.410;2023-09-19T07:21:22;4.95;;;1.80;;
32788;SDS011;19141;48.980;8.410;2023-09-19T07:23:48;3.92;;;2.38;;
32788;SDS011;19141;48.980;8.410;2023-09-19T07:26:15;4.60;;;2.05;;
32788;SDS011;19141;48.980;8.410;2023-09-19T07:28:40;6.38;;;2.00;;
32788;SDS011;19141;48.980;8.410;2023-09-19T07:31:06;5.05;;;2.00;;
32788;SDS011;19141;48.980;8.410;2023-09-19T07:33:35;4.07;;;1.80;;
32788;SDS011;19141;48.980;8.410;2023-09-19T07:36:01;3.75;;;2.20;;
32788;SDS011;19141;48.980;8.410;2023-09-19T07:38:26;6.65;;;2.53;;
32788;SDS011;19141;48.980;8.410;2023-09-19T07:40:52;4.40;;;1.88;;
32788;SDS011;19141;48.980;8.410;2023-09-19T07:43:18;3.47;;;1.75;;
32788;SDS011;19141;48.980;8.410;2023-09-19T07:45:43;3.75;;;1.52;;
32788;SDS011;19141;48.980;8.410;2023-09-19T07:48:09;2.17;;;1.40;;
32788;SDS011;19141;48.980;8.410;2023-09-19T07:50:40;3.97;;;1.63;;
32788;SDS011;19141;48.980;8.410;2023-09-19T07:53:08;2.13;;;1.52;;
32788;SDS011;19141;48.980;8.410;2023-09-19T07:55:34;2.08;;;1.40;;
32788;SDS011;19141;48.980;8.410;2023-09-19T07:57:59;2.65;;;1.35;;
32788;SDS011;19141;48.980;8.410;2023-09-19T08:00:25;3.28;;;1.40;;
32788;SDS011;19141;48.980;8.410;2023-09-19T08:02:51;2.20;;;1.40;;
32788;SDS011;19141;48.980;8.410;2023-09-19T08:05:17;3.83;;;1.30;;
32788;SDS011;19141;48.980;8.410;2023-09-19T08:07:46;5.85;;;1.40;;
32788;SDS011;19141;48.980;8.410;2023-09-19T08:10:14;3.95;;;1.30;;
32788;SDS011;19141;48.980;8.410;2023-09-19T08:12:41;3.72;;;1.20;;
32788;SDS011;19141;48.980;8.410;2023-09-19T08:17:39;2.47;;;1.20;;
32788;SDS011;19141;48.980;8.410;2023-09-19T08:20:05;3.67;;;1.40;;
32788;SDS011;19141;48.980;8.410;2023-09-19T08:22:31;3.50;;;1.80;;
32788;SDS011;19141;48.980;8.410;2023-09-19T08:24:57;1.88;;;1.02;;
32788;SDS011;19141;48.980;8.410;2023-09-19T08:27:23;4.65;;;1.50;;
32788;SDS011;19141;48.980;8.410;2023-09-19T08:29:52;3.35;;;1.33;;
32788;SDS011;19141;48.980;8.410;2023-09-19T08:32:18;2.92;;;1.23;;
32788;SDS011;19141;48.980;8.410;2023-09-19T08:34:48;2.20;;;1.35;;
32788;SDS011;19141;48.980;8.410;2023-09-19T08:37:14;1.25;;;1.00;;
32788;SDS011;19141;48.980;8.410;2023-09-19T08:39:39;2.58;;;1.30;;
32788;SDS011;19141;48.980;8.410;2023-09-19T08:42:05;1.25;;;0.98;;
32788;SDS011;19141;48.980;8.410;2023-09-19T08:44:30;2.28;;;1.08;;
32788;SDS011;19141;48.980;8.410;2023-09-19T08:47:06;2.17;;;1.10;;
32788;SDS011;19141;48.980;8.410;2023-09-19T08:49:39;3.35;;;1.17;;
32788;SDS011;19141;48.980;8.410;2023-09-19T08:52:25;3.10;;;1.13;;
32788;SDS011;19141;48.980;8.410;2023-09-19T08:54:52;2.67;;;0.90;;
32788;SDS011;19141;48.980;8.410;2023-09-19T08:57:26;3.35;;;1.00;;
32788;SDS011;19141;48.980;8.410;2023-09-19T08:59:54;1.95;;;1.00;;
32788;SDS011;19141;48.980;8.410;2023-09-19T09:02:21;1.45;;;0.80;;
32788;SDS011;19141;48.980;8.410;2023-09-19T09:04:48;1.48;;;0.85;;
32788;SDS011;19141;48.980;8.410;2023-09-19T09:07:15;3.83;;;1.00;;
32788;SDS011;19141;48.980;8.410;2023-09-19T09:09:42;2.55;;;0.90;;
32788;SDS011;19141;48.980;8.410;2023-09-19T09:12:12;6.77;;;1.07;;
32788;SDS011;19141;48.980;8.410;2023-09-19T09:14:39;2.47;;;0.73;;
32788;SDS011;19141;48.980;8.410;2023-09-19T09:17:06;2.08;;;0.80;;
32788;SDS011;19141;48.980;8.410;2023-09-19T09:19:32;1.15;;;0.80;;
32788;SDS011;19141;48.980;8.410;2023-09-19T09:22:07;2.72;;;0.82;;
32788;SDS011;19141;48.980;8.410;2023-09-19T09:24:36;1.05;;;0.55;;
32788;SDS011;19141;48.980;8.410;2023-09-19T09:27:05;2.30;;;0.80;;
32788;SDS011;19141;48.980;8.410;2023-09-19T09:34:43;1.42;;;0.85;;
32788;SDS011;19141;48.980;8.410;2023-09-19T09:37:13;1.88;;;0.85;;
32788;SDS011;19141;48.980;8.410;2023-09-19T09:39:40;2.15;;;1.23;;
32788;SDS011;19141;48.980;8.410;2023-09-19T09:42:37;2.63;;;0.80;;
32788;SDS011;19141;48.980;8.410;2023-09-19T09:47:58;3.05;;;1.05;;
32788;SDS011;19141;48.980;8.410;2023-09-19T09:50:27;3.20;;;1.00;;
32788;SDS011;19141;48.980;8.410;2023-09-19T09:52:55;3.25;;;1.30;;
32788;SDS011;19141;48.980;8.410;2023-09-19T09:58:22;2.65;;;1.02;;
32788;SDS011;19141;48.980;8.410;2023-09-19T10:00:54;0.70;;;0.60;;
32788;SDS011;19141;48.980;8.410;2023-09-19T10:03:36;6.05;;;0.90;;
32788;SDS011;19141;48.980;8.410;2023-09-19T10:06:12;1.88;;;0.90;;
32788;SDS011;19141;48.980;8.410;2023-09-19T10:09:05;1.77;;;0.90;;
32788;SDS011;19141;48.980;8.410;2023-09-19T10:11:38;2.58;;;0.90;;
32788;SDS011;19141;48.980;8.410;2023-09-19T10:14:08;2.53;;;1.02;;
32788;SDS011;19141;48.980;8.410;2023-09-19T10:19:04;3.35;;;0.75;;
32788;SDS011;19141;48.980;8.410;2023-09-19T10:21:34;2.42;;;0.90;;
32788;SDS011;19141;48.980;8.410;2023-09-19T10:26:32;2.65;;;0.70;;
32788;SDS011;19141;48.980;8.410;2023-09-19T10:29:01;1.40;;;0.85;;
32788;SDS011;19141;48.980;8.410;2023-09-19T10:31:28;1.77;;;1.05;;
32788;SDS011;19141;48.980;8.410;2023-09-19T10:33:59;3.45;;;1.02;;
32788;SDS011;19141;48.980;8.410;2023-09-19T10:36:27;1.10;;;0.60;;
32788;SDS011;19141;48.980;8.410;2023-09-19T10:38:59;1.42;;;0.80;;
32788;SDS011;19141;48.980;8.410;2023-09-19T10:41:29;1.67;;;0.90;;
32788;SDS011;19141;48.980;8.410;2023-09-19T10:43:59;1.92;;;1.00;;
32788;SDS011;19141;48.980;8.410;2023-09-19T10:46:31;2.90;;;0.70;;
32788;SDS011;19141;48.980;8.410;2023-09-19T10:49:00;3.20;;;0.90;;
32788;SDS011;19141;48.980;8.410;2023-09-19T10:51:29;2.17;;;1.08;;
32788;SDS011;19141;48.980;8.410;2023-09-19T10:54:12;1.60;;;0.80;;
32788;SDS011;19141;48.980;8.410;2023-09-19T10:56:50;2.63;;;0.93;;
32788;SDS011;19141;48.980;8.410;2023-09-19T10:59:17;1.50;;;1.13;;
32788;SDS011;19141;48.980;8.410;2023-09-19T11:01:44;4.53;;;1.05;;
32788;SDS011;19141;48.980;8.410;2023-09-19T11:04:29;2.25;;;1.00;;
32788;SDS011;19141;48.980;8.410;2023-09-19T11:07:03;2.28;;;0.95;;
32788;SDS011;19141;48.980;8.410;2023-09-19T11:26:47;1.52;;;0.75;;
32788;SDS011;19141;48.980;8.410;2023-09-19T11:31:58;1.35;;;0.85;;
32788;SDS011;19141;48.980;8.410;2023-09-19T11:42:47;1.23;;;0.80;;
32788;SDS011;19141;48.980;8.410;2023-09-19T11:48:20;1.90;;;0.98;;
32788;SDS011;19141;48.980;8.410;2023-09-19T11:50:50;1.17;;;0.80;;
32788;SDS011;19141;48.980;8.410;2023-09-19T11:55:45;2.53;;;1.27;;
32788;SDS011;19141;48.980;8.410;2023-09-19T11:58:11;2.38;;;1.02;;
32788;SDS011;19141;48.980;8.410;2023-09-19T12:00:39;1.10;;;0.77;;
32788;SDS011;19141;48.980;8.410;2023-09-19T12:03:09;2.10;;;0.80;;
32788;SDS011;19141;48.980;8.410;2023-09-19T12:05:36;1.70;;;0.80;;
32788;SDS011;19141;48.980;8.410;2023-09-19T12:08:05;1.63;;;0.90;;
32788;SDS011;19141;48.980;8.410;2023-09-19T12:11:11;1.38;;;0.80;;
32788;SDS011;19141;48.980;8.410;2023-09-19T12:13:26;1.70;;;0.98;;
32788;SDS011;19141;48.980;8.410;2023-09-19T12:15:55;1.50;;;0.70;;
32788;SDS011;19141;48.980;8.410;2023-09-19T12:18:29;3.85;;;1.02;;
32788;SDS011;19141;48.980;8.410;2023-09-19T12:20:55;2.40;;;1.10;;
32788;SDS011;19141;48.980;8.410;2023-09-19T12:25:48;1.07;;;0.70;;
32788;SDS011;19141;48.980;8.410;2023-09-19T12:28:16;1.55;;;0.90;;
32788;SDS011;19141;48.980;8.410;2023-09-19T12:30:47;1.38;;;0.90;;
32788;SDS011;19141;48.980;8.410;2023-09-19T12:33:16;3.13;;;0.95;;
32788;SDS011;19141;48.980;8.410;2023-09-19T12:35:44;1.75;;;0.75;;
32788;SDS011;19141;48.980;8.410;2023-09-19T12:38:10;2.55;;;0.90;;
32788;SDS011;19141;48.980;8.410;2023-09-19T12:40:37;2.13;;;0.98;;
32788;SDS011;19141;48.980;8.410;2023-09-19T12:43:07;1.63;;;0.90;;
32788;SDS011;19141;48.980;8.410;2023-09-19T12:45:34;1.20;;;0.70;;
32788;SDS011;19141;48.980;8.410;2023-09-19T12:51:05;3.38;;;0.90;;
32788;SDS011;19141;48.980;8.410;2023-09-19T12:53:42;2.63;;;0.90;;
32788;SDS011;19141;48.980;8.410;2023-09-19T12:56:13;1.88;;;0.73;;
32788;SDS011;19141;48.980;8.410;2023-09-19T12:58:53;1.92;;;0.90;;
32788;SDS011;19141;48.980;8.410;2023-09-19T13:01:21;3.47;;;0.80;;
32788;SDS011;19141;48.980;8.410;2023-09-19T13:06:38;1.67;;;1.10;;
32788;SDS011;19141;48.980;8.410;2023-09-19T13:09:08;1.13;;;0.55;;
32788;SDS011;19141;48.980;8.410;2023-09-19T13:11:36;0.90;;;0.70;;
32788;SDS011;19141;48.980;8.410;2023-09-19T13:14:15;1.77;;;0.73;;
32788;SDS011;19141;48.980;8.410;2023-09-19T13:25:14;1.60;;;1.10;;
32788;SDS011;19141;48.980;8.410;2023-09-19T13:27:43;2.13;;;0.90;;
32788;SDS011;19141;48.980;8.410;2023-09-19T13:30:10;1.70;;;0.80;;
32788;SDS011;19141;48.980;8.410;2023-09-19T13:32:36;1.35;;;0.70;;
32788;SDS011;19141;48.980;8.410;2023-09-19T13:35:02;0.75;;;0.68;;
32788;SDS011;19141;48.980;8.410;2023-09-19T13:37:30;2.25;;;0.88;;
32788;SDS011;19141;48.980;8.410;2023-09-19T13:39:56;1.55;;;0.70;;
32788;SDS011;19141;48.980;8.410;2023-09-19T13:42:23;2.73;;;0.90;;
32788;SDS011;19141;48.980;8.410;2023-09-19T13:44:50;1.80;;;0.80;;
32788;SDS011;19141;48.980;8.410;2023-09-19T13:47:16;3.17;;;0.90;;
32788;SDS011;19141;48.980;8.410;2023-09-19T13:49:42;1.98;;;0.80;;
32788;SDS011;19141;48.980;8.410;2023-09-19T13:52:08;1.67;;;0.77;;
32788;SDS011;19141;48.980;8.410;2023-09-19T13:54:34;1.58;;;0.90;;
32788;SDS011;19141;48.980;8.410;2023-09-19T13:56:59;1.42;;;0.63;;
32788;SDS011;19141;48.980;8.410;2023-09-19T13:59:25;2.40;;;0.87;;
32788;SDS011;19141;48.980;8.410;2023-09-19T14:01:53;2.65;;;0.95;;
32788;SDS011;19141;48.980;8.410;2023-09-19T14:04:19;2.72;;;0.70;;
32788;SDS011;19141;48.980;8.410;2023-09-19T14:06:46;1.98;;;0.90;;
32788;SDS011;19141;48.980;8.410;2023-09-19T14:09:11;2.05;;;0.60;;
32788;SDS011;19141;48.980;8.410;2023-09-19T14:11:38;1.27;;;0.73;;
32788;SDS011;19141;48.980;8.410;2023-09-19T14:14:04;1.73;;;0.70;;
32788;SDS011;19141;48.980;8.410;2023-09-19T14:16:29;1.38;;;0.70;;
32788;SDS011;19141;48.980;8.410;2023-09-19T14:18:56;1.77;;;0.80;;
32788;SDS011;19141;48.980;8.410;2023-09-19T14:21:23;1.05;;;0.80;;
32788;SDS011;19141;48.980;8.410;2023-09-19T14:23:48;1.77;;;1.10;;
32788;SDS011;19141;48.980;8.410;2023-09-19T14:26:14;1.58;;;0.80;;
32788;SDS011;19141;48.980;8.410;2023-09-19T14:28:41;1.63;;;0.70;;
32788;SDS011;19141;48.980;8.410;2023-09-19T14:31:07;2.13;;;0.90;;
32788;SDS011;19141;48.980;8.410;2023-09-19T14:33:33;2.90;;;0.98;;
32788;SDS011;19141;48.980;8.410;2023-09-19T14:36:02;0.98;;;0.70;;
32788;SDS011;19141;48.980;8.410;2023-09-19T14:38:31;1.45;;;0.90;;
32788;SDS011;19141;48.980;8.410;2023-09-19T14:43:27;1.30;;;0.73;;
32788;SDS011;19141;48.980;8.410;2023-09-19T14:50:50;1.02;;;0.80;;
32788;SDS011;19141;48.980;8.410;2023-09-19T14:53:16;1.20;;;0.70;;
32788;SDS011;19141;48.980;8.410;2023-09-19T14:55:42;1.85;;;0.85;;
32788;SDS011;19141;48.980;8.410;2023-09-19T14:58:10;3.58;;;0.90;;
32788;SDS011;19141;48.980;8.410;2023-09-19T15:00:36;1.08;;;0.88;;
32788;SDS011;19141;48.980;8.410;2023-09-19T15:03:01;1.05;;;0.70;;
32788;SDS011;19141;48.980;8.410;2023-09-19T15:05:27;1.48;;;0.88;;
32788;SDS011;19141;48.980;8.410;2023-09-19T15:07:55;1.60;;;0.70;;
32788;SDS011;19141;48.980;8.410;2023-09-19T15:10:22;1.20;;;0.50;;
32788;SDS011;19141;48.980;8.410;2023-09-19T15:12:48;5.28;;;0.80;;
32788;SDS011;19141;48.980;8.410;2023-09-19T15:15:13;8.65;;;1.15;;
32788;SDS011;19141;48.980;8.410;2023-09-19T15:17:39;1.20;;;0.70;;
32788;SDS011;19141;48.980;8.410;2023-09-19T15:20:04;1.63;;;0.90;;
32788;SDS011;19141;48.980;8.410;2023-09-19T15:22:32;0.90;;;0.60;;
32788;SDS011;19141;48.980;8.410;2023-09-19T15:24:59;1.88;;;0.90;;
32788;SDS011;19141;48.980;8.410;2023-09-19T15:27:25;1.13;;;0.70;;
32788;SDS011;19141;48.980;8.410;2023-09-19T15:29:51;1.80;;;1.02;;
32788;SDS011;19141;48.980;8.410;2023-09-19T15:32:17;3.10;;;0.93;;
32788;SDS011;19141;48.980;8.410;2023-09-19T15:34:42;0.65;;;0.60;;
32788;SDS011;19141;48.980;8.410;2023-09-19T15:37:07;1.05;;;0.63;;
32788;SDS011;19141;48.980;8.410;2023-09-19T15:39:33;1.08;;;0.80;;
32788;SDS011;19141;48.980;8.410;2023-09-19T15:41:58;1.95;;;0.90;;
32788;SDS011;19141;48.980;8.410;2023-09-19T15:44:24;1.25;;;0.65;;
32788;SDS011;19141;48.980;8.410;2023-09-19T15:46:52;1.73;;;0.80;;
32788;SDS011;19141;48.980;8.410;2023-09-19T15:49:17;1.50;;;0.82;;
32788;SDS011;19141;48.980;8.410;2023-09-19T15:51:43;3.28;;;0.93;;
32788;SDS011;19141;48.980;8.410;2023-09-19T15:54:12;0.90;;;0.60;;
32788;SDS011;19141;48.980;8.410;2023-09-19T15:56:39;1.30;;;1.00;;
32788;SDS011;19141;48.980;8.410;2023-09-19T15:59:06;1.63;;;1.00;;
32788;SDS011;19141;48.980;8.410;2023-09-19T16:01:32;4.28;;;1.10;;
32788;SDS011;19141;48.980;8.410;2023-09-19T16:03:57;2.15;;;1.02;;
32788;SDS011;19141;48.980;8.410;2023-09-19T16:06:24;1.67;;;1.23;;
32788;SDS011;19141;48.980;8.410;2023-09-19T16:08:52;1.23;;;0.70;;
32788;SDS011;19141;48.980;8.410;2023-09-19T16:13:46;1.73;;;0.98;;
32788;SDS011;19141;48.980;8.410;2023-09-19T16:16:13;1.77;;;1.20;;
32788;SDS011;19141;48.980;8.410;2023-09-19T16:18:47;1.50;;;1.20;;
32788;SDS011;19141;48.980;8.410;2023-09-19T16:21:30;1.88;;;1.20;;
32788;SDS011;19141;48.980;8.410;2023-09-19T16:23:58;1.35;;;1.05;;
32788;SDS011;19141;48.980;8.410;2023-09-19T16:26:25;2.03;;;1.30;;
32788;SDS011;19141;48.980;8.410;2023-09-19T16:28:52;2.17;;;1.13;;
32788;SDS011;19141;48.980;8.410;2023-09-19T16:31:18;2.42;;;1.27;;
32788;SDS011;19141;48.980;8.410;2023-09-19T16:33:45;2.22;;;1.33;;
32788;SDS011;19141;48.980;8.410;2023-09-19T16:36:11;5.13;;;1.73;;
32788;SDS011;19141;48.980;8.410;2023-09-19T16:38:38;3.20;;;1.50;;
32788;SDS011;19141;48.980;8.410;2023-09-19T16:41:04;3.08;;;1.17;;
32788;SDS011;19141;48.980;8.410;2023-09-19T16:43:31;3.00;;;1.38;;
32788;SDS011;19141;48.980;8.410;2023-09-19T16:46:00;1.60;;;1.20;;
32788;SDS011;19141;48.980;8.410;2023-09-19T16:48:27;3.78;;;1.45;;
32788;SDS011;19141;48.980;8.410;2023-09-19T16:51:03;3.28;;;1.30;;
32788;SDS011;19141;48.980;8.410;2023-09-19T16:53:31;1.98;;;1.13;;
32788;SDS011;19141;48.980;8.410;2023-09-19T16:56:00;2.05;;;1.00;;
32788;SDS011;19141;48.980;8.410;2023-09-19T17:00:59;2.08;;;1.20;;
32788;SDS011;19141;48.980;8.410;2023-09-19T17:03:25;2.60;;;1.10;;
32788;SDS011;19141;48.980;8.410;2023-09-19T17:05:51;3.47;;;1.02;;
32788;SDS011;19141;48.980;8.410;2023-09-19T17:08:17;1.38;;;1.08;;
32788;SDS011;19141;48.980;8.410;2023-09-19T17:10:43;1.60;;;1.20;;
32788;SDS011;19141;48.980;8.410;2023-09-19T17:13:10;2.83;;;1.50;;
32788;SDS011;19141;48.980;8.410;2023-09-19T17:15:39;4.22;;;1.60;;
32788;SDS011;19141;48.980;8.410;2023-09-19T17:18:04;3.13;;;1.63;;
32788;SDS011;19141;48.980;8.410;2023-09-19T17:20:30;2.17;;;1.58;;
32788;SDS011;19141;48.980;8.410;2023-09-19T17:22:56;3.28;;;1.40;;
32788;SDS011;19141;48.980;8.410;2023-09-19T17:25:22;1.60;;;1.10;;
32788;SDS011;19141;48.980;8.410;2023-09-19T17:27:48;1.95;;;1.33;;
32788;SDS011;19141;48.980;8.410;2023-09-19T17:30:14;3.75;;;1.25;;
32788;SDS011;19141;48.980;8.410;2023-09-19T17:32:43;1.25;;;0.85;;
32788;SDS011;19141;48.980;8.410;2023-09-19T17:35:10;1.75;;;1.20;;
32788;SDS011;19141;48.980;8.410;2023-09-19T17:37:37;1.75;;;1.20;;
32788;SDS011;19141;48.980;8.410;2023-09-19T17:40:07;2.35;;;1.17;;
32788;SDS011;19141;48.980;8.410;2023-09-19T17:42:36;2.60;;;1.80;;
32788;SDS011;19141;48.980;8.410;2023-09-19T17:45:03;2.35;;;1.60;;
32788;SDS011;19141;48.980;8.410;2023-09-19T17:47:29;3.55;;;2.38;;
32788;SDS011;19141;48.980;8.410;2023-09-19T17:49:55;3.08;;;1.25;;
32788;SDS011;19141;48.980;8.410;2023-09-19T17:52:21;4.38;;;3.42;;
32788;SDS011;19141;48.980;8.410;2023-09-19T17:54:47;1.95;;;1.40;;
32788;SDS011;19141;48.980;8.410;2023-09-19T17:57:13;1.80;;;1.20;;
32788;SDS011;19141;48.980;8.410;2023-09-19T17:59:39;3.05;;;1.80;;
32788;SDS011;19141;48.980;8.410;2023-09-19T18:02:05;3.72;;;1.60;;
32788;SDS011;19141;48.980;8.410;2023-09-19T18:04:30;2.58;;;1.40;;
32788;SDS011;19141;48.980;8.410;2023-09-19T18:06:55;2.47;;;1.13;;
32788;SDS011;19141;48.980;8.410;2023-09-19T18:09:21;4.28;;;1.35;;
32788;SDS011;19141;48.980;8.410;2023-09-19T18:11:46;3.30;;;1.23;;
32788;SDS011;19141;48.980;8.410;2023-09-19T18:14:15;2.00;;;1.10;;
32788;SDS011;19141;48.980;8.410;2023-09-19T18:16:45;2.88;;;1.38;;
32788;SDS011;19141;48.980;8.410;2023-09-19T18:19:11;2.13;;;0.98;;
32788;SDS011;19141;48.980;8.410;2023-09-19T18:21:37;3.67;;;1.50;;
32788;SDS011;19141;48.980;8.410;2023-09-19T18:24:03;4.30;;;1.30;;
32788;SDS011;19141;48.980;8.410;2023-09-19T18:26:32;4.45;;;1.60;;
32788;SDS011;19141;48.980;8.410;2023-09-19T18:28:58;3.08;;;1.58;;
32788;SDS011;19141;48.980;8.410;2023-09-19T18:31:23;2.40;;;1.85;;
32788;SDS011;19141;48.980;8.410;2023-09-19T18:33:49;4.28;;;1.88;;
32788;SDS011;19141;48.980;8.410;2023-09-19T18:36:15;2.50;;;1.77;;
32788;SDS011;19141;48.980;8.410;2023-09-19T18:38:40;3.58;;;1.52;;
32788;SDS011;19141;48.980;8.410;2023-09-19T18:41:07;4.05;;;1.45;;
32788;SDS011;19141;48.980;8.410;2023-09-19T18:43:33;3.63;;;1.40;;
32788;SDS011;19141;48.980;8.410;2023-09-19T18:46:02;2.53;;;1.75;;
32788;SDS011;19141;48.980;8.410;2023-09-19T18:48:30;1.95;;;1.30;;
32788;SDS011;19141;48.980;8.410;2023-09-19T18:50:56;4.15;;;1.63;;
32788;SDS011;19141;48.980;8.410;2023-09-19T18:53:21;1.90;;;1.23;;
32788;SDS011;19141;48.980;8.410;2023-09-19T18:55:47;2.38;;;1.35;;
32788;SDS011;19141;48.980;8.410;2023-09-19T18:58:14;1.50;;;0.93;;
32788;SDS011;19141;48.980;8.410;2023-09-19T19:00:40;2.22;;;1.88;;
32788;SDS011;19141;48.980;8.410;2023-09-19T19:03:05;1.85;;;1.05;;
32788;SDS011;19141;48.980;8.410;2023-09-19T19:05:31;2.75;;;1.30;;
32788;SDS011;19141;48.980;8.410;2023-09-19T19:08:00;2.03;;;1.10;;
32788;SDS011;19141;48.980;8.410;2023-09-19T19:10:26;9.05;;;6.57;;
32788;SDS011;19141;48.980;8.410;2023-09-19T19:12:52;7.28;;;3.95;;
32788;SDS011;19141;48.980;8.410;2023-09-19T19:15:17;4.53;;;2.25;;
32788;SDS011;19141;48.980;8.410;2023-09-19T19:17:43;3.80;;;2.35;;
32788;SDS011;19141;48.980;8.410;2023-09-19T19:20:09;4.00;;;1.80;;
32788;SDS011;19141;48.980;8.410;2023-09-19T19:22:35;4.95;;;1.65;;
32788;SDS011;19141;48.980;8.410;2023-09-19T19:25:02;2.88;;;2.42;;
32788;SDS011;19141;48.980;8.410;2023-09-19T19:29:55;4.32;;;1.63;;
32788;SDS011;19141;48.980;8.410;2023-09-19T19:32:20;2.20;;;1.33;;
32788;SDS011;19141;48.980;8.410;2023-09-19T19:34:50;1.83;;;1.23;;
32788;SDS011;19141;48.980;8.410;2023-09-19T19:37:16;1.75;;;1.40;;
32788;SDS011;19141;48.980;8.410;2023-09-19T19:39:42;2.55;;;1.50;;
32788;SDS011;19141;48.980;8.410;2023-09-19T19:42:08;3.25;;;1.55;;
32788;SDS011;19141;48.980;8.410;2023-09-19T19:44:34;3.03;;;1.17;;
32788;SDS011;19141;48.980;8.410;2023-09-19T19:46:59;3.80;;;1.45;;
32788;SDS011;19141;48.980;8.410;2023-09-19T19:49:25;2.00;;;1.30;;
32788;SDS011;19141;48.980;8.410;2023-09-19T19:51:51;3.10;;;1.52;;
32788;SDS011;19141;48.980;8.410;2023-09-19T19:54:17;3.30;;;1.48;;
32788;SDS011;19141;48.980;8.410;2023-09-19T19:56:42;2.83;;;1.30;;
32788;SDS011;19141;48.980;8.410;2023-09-19T19:59:08;1.80;;;1.08;;
32788;SDS011;19141;48.980;8.410;2023-09-19T20:01:35;2.72;;;1.60;;
32788;SDS011;19141;48.980;8.410;2023-09-19T20:04:01;2.85;;;1.20;;
32788;SDS011;19141;48.980;8.410;2023-09-19T20:06:27;2.58;;;1.20;;
32788;SDS011;19141;48.980;8.410;2023-09-19T20:08:52;3.35;;;1.27;;
32788;SDS011;19141;48.980;8.410;2023-09-19T20:11:18;3.10;;;1.30;;
32788;SDS011;19141;48.980;8.410;2023-09-19T20:13:44;3.35;;;1.40;;
32788;SDS011;19141;48.980;8.410;2023-09-19T20:16:10;2.78;;;1.45;;
32788;SDS011;19141;48.980;8.410;2023-09-19T20:18:37;2.10;;;1.30;;
32788;SDS011;19141;48.980;8.410;2023-09-19T20:21:08;1.90;;;1.10;;
32788;SDS011;19141;48.980;8.410;2023-09-19T20:23:38;1.85;;;1.30;;
32788;SDS011;19141;48.980;8.410;2023-09-19T20:26:05;3.20;;;1.27;;
32788;SDS011;19141;48.980;8.410;2023-09-19T20:28:32;2.67;;;1.85;;
32788;SDS011;19141;48.980;8.410;2023-09-19T20:30:59;2.35;;;1.35;;
32788;SDS011;19141;48.980;8.410;2023-09-19T20:33:34;2.63;;;1.30;;
32788;SDS011;19141;48.980;8.410;2023-09-19T20:36:03;2.50;;;1.52;;
32788;SDS011;19141;48.980;8.410;2023-09-19T20:38:30;1.92;;;1.45;;